Time;durP1;ratioP1;P1;durP2;ratioP2;P2;SDS_P1;SDS_P2;PMS_P1;PMS_P2;Temp;Humidity;BMP_temperature;BMP_pressure;BME280_temperature;BME280_humidity;BME280_pressure;Samples;Min_cycle;Max_cycle;Signal;HPM_P1;HPM_P2
2023/01/27 00:01:01;;;;;;;3.20;0.60;;;;;;;1.94;81.37;102880.44;5054916;28;20052;-66
2023/01/27 00:03:27;;;;;;;3.88;0.50;;;;;;;1.94;81.28;102888.41;5054479;28;20167;-66
2023/01/27 00:05:52;;;;;;;2.70;0.50;;;;;;;1.92;81.29;102885.84;5038169;28;20028;-66
2023/01/27 00:08:19;;;;;;;4.47;0.60;;;;;;;1.86;81.35;102883.56;5055571;28;20028;-66
2023/01/27 00:10:44;;;;;;;6.00;0.70;;;;;;;1.75;81.01;102875.34;5053839;28;20031;-66
2023/01/27 00:13:26;;;;;;;3.72;0.77;;;;;;;1.74;80.86;102885.13;5054072;28;20026;-66
2023/01/27 00:15:52;;;;;;;1.55;0.50;;;;;;;1.63;81.40;102890.22;5054970;28;20064;-66
2023/01/27 00:18:19;;;;;;;3.72;0.50;;;;;;;1.65;81.41;102883.00;5054137;28;20134;-66
2023/01/27 00:26:17;;;;;;;1.42;0.47;;;;;;;1.43;81.49;102835.66;5054784;28;20055;-66
2023/01/27 00:28:44;;;;;;;4.32;0.55;;;;;;;1.39;81.79;102842.94;5055010;28;20033;-67
2023/01/27 00:34:00;;;;;;;1.52;0.40;;;;;;;1.51;81.66;102865.25;5053881;28;20118;-67
2023/01/27 00:36:30;;;;;;;1.92;0.40;;;;;;;1.53;81.98;102873.97;5053838;28;20040;-67
2023/01/27 00:38:56;;;;;;;1.30;0.45;;;;;;;1.51;81.55;102865.25;5053903;28;20035;-66
2023/01/27 00:41:22;;;;;;;2.83;0.50;;;;;;;1.50;81.73;102862.69;5054568;28;20029;-67
2023/01/27 00:43:52;;;;;;;1.20;0.47;;;;;;;1.35;82.10;102859.97;5052758;28;20432;-67
2023/01/27 00:46:20;;;;;;;4.97;0.60;;;;;;;1.32;82.84;102868.09;5055697;28;20091;-67
2023/01/27 00:48:46;;;;;;;1.83;0.50;;;;;;;1.31;82.07;102855.78;5056511;28;20071;-68
2023/01/27 00:51:12;;;;;;;3.00;0.50;;;;;;;1.38;81.83;102873.06;5052913;28;20029;-66
2023/01/27 00:53:39;;;;;;;2.78;0.57;;;;;;;1.38;82.01;102875.69;5036518;28;20029;-67
2023/01/27 00:56:04;;;;;;;2.40;0.88;;;;;;;1.36;82.03;102871.44;5052001;28;20514;-67
2023/01/27 00:58:31;;;;;;;0.73;0.40;;;;;;;1.29;81.92;102862.13;5054028;28;20112;-67
2023/01/27 01:01:01;;;;;;;1.23;0.50;;;;;;;1.32;82.00;102876.03;5054164;28;20167;-67
2023/01/27 01:03:31;;;;;;;3.47;0.68;;;;;;;1.30;81.62;102880.59;5053999;28;20055;-67
2023/01/27 01:06:01;;;;;;;1.17;0.45;;;;;;;1.27;82.08;102874.63;5054427;28;20454;-67
2023/01/27 01:08:28;;;;;;;5.68;1.00;;;;;;;1.19;81.86;102859.13;5050975;28;20119;-67
2023/01/27 01:10:54;;;;;;;3.05;0.80;;;;;;;1.23;81.89;102881.06;5053689;28;20058;-67
2023/01/27 01:13:20;;;;;;;2.33;0.77;;;;;;;1.18;82.04;102871.53;5053053;28;20025;-67
2023/01/27 01:15:46;;;;;;;1.83;0.70;;;;;;;0.72;82.24;102798.22;5053198;28;20396;-67
2023/01/27 01:18:12;;;;;;;2.65;0.68;;;;;;;1.22;82.22;102890.78;5055879;28;20049;-67
2023/01/27 01:20:41;;;;;;;1.55;0.70;;;;;;;1.23;82.45;102889.00;5056731;28;20025;-67
2023/01/27 01:23:07;;;;;;;1.33;0.57;;;;;;;1.17;81.79;102887.56;5056107;28;20090;-67
2023/01/27 01:25:33;;;;;;;3.30;0.63;;;;;;;1.15;82.15;102889.41;5056199;28;20051;-67
2023/01/27 01:28:00;;;;;;;1.75;0.70;;;;;;;1.12;82.03;102876.34;5055770;28;20029;-67
2023/01/27 01:30:26;;;;;;;1.95;0.70;;;;;;;1.11;82.22;102872.84;5052069;28;20039;-67
2023/01/27 01:32:55;;;;;;;4.82;0.60;;;;;;;1.14;82.04;102879.75;5053287;28;20029;-67
2023/01/27 01:35:22;;;;;;;3.63;0.63;;;;;;;1.13;82.32;102881.56;5053019;28;20037;-67
2023/01/27 01:37:47;;;;;;;1.58;0.60;;;;;;;0.86;81.87;102841.56;5033978;28;20475;-67
2023/01/27 01:40:13;;;;;;;3.67;0.90;;;;;;;1.02;81.93;102883.09;5052057;28;20025;-67
2023/01/27 01:43:02;;;;;;;2.25;0.70;;;;;;;0.97;82.40;102895.78;5053350;28;20025;-67
2023/01/27 01:45:30;;;;;;;3.13;0.80;;;;;;;0.96;81.81;102896.69;5052035;28;20412;-67
2023/01/27 01:47:58;;;;;;;3.35;0.82;;;;;;;0.92;81.90;102904.81;5052233;28;20052;-67
2023/01/27 01:50:23;;;;;;;3.00;0.70;;;;;;;0.88;81.86;102886.53;5051775;28;20039;-67
2023/01/27 01:52:50;;;;;;;2.22;0.60;;;;;;;0.87;82.03;102888.31;5051665;28;20033;-67
2023/01/27 01:55:15;;;;;;;3.05;0.80;;;;;;;0.84;81.98;102882.34;5051404;28;20029;-67
2023/01/27 01:57:42;;;;;;;3.22;0.50;;;;;;;0.80;82.24;102880.81;5034530;28;20424;-67
2023/01/27 02:00:09;;;;;;;3.85;0.82;;;;;;;0.56;82.29;102844.09;5052471;28;20025;-67
2023/01/27 02:02:36;;;;;;;1.77;0.60;;;;;;;0.77;82.33;102889.78;5051193;28;20040;-67
2023/01/27 02:05:18;;;;;;;2.70;0.63;;;;;;;0.71;82.15;102879.50;5051213;28;20506;-67
2023/01/27 02:08:02;;;;;;;3.70;1.02;;;;;;;0.70;82.34;102894.56;5051697;28;20024;-66
2023/01/27 02:10:27;;;;;;;1.75;0.70;;;;;;;0.68;82.63;102890.25;5052789;28;20124;-67
2023/01/27 02:12:52;;;;;;;2.63;0.80;;;;;;;0.66;82.48;102892.13;5052504;28;20040;-67
2023/01/27 02:15:20;;;;;;;2.00;0.75;;;;;;;0.59;82.28;102886.31;5050979;28;20075;-67
2023/01/27 02:17:46;;;;;;;3.10;1.23;;;;;;;0.62;82.43;102891.44;5052352;28;20024;-67
2023/01/27 02:20:46;;;;;;;2.58;0.75;;;;;;;0.60;82.50;102895.13;5051151;28;20044;-66
2023/01/27 02:23:36;;;;;;;4.20;0.80;;;;;;;0.54;82.62;102903.41;5050865;28;20021;-67
2023/01/27 02:26:01;;;;;;;2.85;0.73;;;;;;;0.49;82.81;102908.09;5052618;28;20024;-67
2023/01/27 02:28:29;;;;;;;1.83;0.73;;;;;;;0.51;82.96;102916.81;5052487;28;20037;-67
2023/01/27 02:30:55;;;;;;;2.42;0.70;;;;;;;0.53;83.02;102918.47;5055308;28;20044;-67
2023/01/27 02:33:21;;;;;;;2.47;0.70;;;;;;;0.53;82.53;102909.63;5055759;28;20163;-67
2023/01/27 02:35:51;;;;;;;2.92;0.77;;;;;;;0.44;82.67;102908.34;5039139;28;20045;-67
2023/01/27 02:38:19;;;;;;;5.28;0.80;;;;;;;0.36;83.04;102915.81;5055188;28;20036;-67
2023/01/27 02:40:51;;;;;;;2.08;0.77;;;;;;;0.36;82.99;102924.63;5053222;28;20028;-66
2023/01/27 02:43:16;;;;;;;2.60;0.70;;;;;;;0.34;83.16;102920.34;5055072;28;20550;-66
2023/01/27 02:45:44;;;;;;;3.60;0.88;;;;;;;0.18;82.94;102885.88;5059363;28;20037;-66
2023/01/27 02:48:09;;;;;;;3.42;0.70;;;;;;;0.40;83.24;102917.41;5034239;28;20512;-66
2023/01/27 02:50:35;;;;;;;2.70;0.77;;;;;;;0.39;83.26;102924.44;5049870;28;20802;-66
2023/01/27 02:53:00;;;;;;;3.92;0.70;;;;;;;0.35;82.97;102936.16;5051608;28;20037;-67
2023/01/27 02:55:26;;;;;;;3.83;0.90;;;;;;;0.37;82.78;102922.84;5034102;28;20086;-66
2023/01/27 02:57:51;;;;;;;1.85;0.70;;;;;;;0.45;82.46;102925.94;5050743;28;20037;-66
2023/01/27 03:00:17;;;;;;;2.70;1.00;;;;;;;0.33;82.72;102908.91;5050817;28;20059;-66
2023/01/27 03:02:42;;;;;;;2.50;1.15;;;;;;;0.32;82.80;102915.13;5052292;28;20029;-66
2023/01/27 03:05:08;;;;;;;2.13;0.98;;;;;;;0.35;83.20;102919.41;5052683;28;20124;-66
2023/01/27 03:07:33;;;;;;;2.67;0.77;;;;;;;0.40;83.11;102918.25;5051259;28;20093;-66
2023/01/27 03:09:58;;;;;;;3.60;0.90;;;;;;;0.41;82.88;102924.38;5051856;28;20468;-66
2023/01/27 03:12:24;;;;;;;4.60;1.17;;;;;;;0.40;83.19;102918.25;5034422;28;20033;-67
2023/01/27 03:20:21;;;;;;;2.85;0.85;;;;;;;0.40;82.98;102918.25;5054943;28;20534;-66
2023/01/27 03:22:48;;;;;;;5.47;0.80;;;;;;;0.38;83.32;102909.50;5053772;28;20021;-67
2023/01/27 03:25:14;;;;;;;3.40;0.90;;;;;;;0.22;83.09;102885.63;5052563;28;20043;-67
2023/01/27 03:27:40;;;;;;;3.75;0.90;;;;;;;0.36;83.13;102911.38;5051676;28;20108;-67
2023/01/27 03:30:06;;;;;;;1.00;0.70;;;;;;;0.35;83.39;102919.41;5034356;28;20582;-67
2023/01/27 03:32:32;;;;;;;2.70;1.00;;;;;;;0.37;83.23;102915.75;5050781;28;20526;-66
2023/01/27 03:35:02;;;;;;;1.77;0.90;;;;;;;0.38;83.38;102912.16;5054873;28;20040;-67
2023/01/27 03:48:30;;;;;;;1.70;0.60;;;;;;;0.37;84.57;102907.81;5055446;28;20032;-67
2023/01/27 03:51:01;;;;;;;2.03;0.88;;;;;;;0.42;84.15;102904.91;5037574;28;20060;-66
2023/01/27 03:53:26;;;;;;;3.15;0.80;;;;;;;0.44;84.24;102909.19;5054309;28;20059;-66
2023/01/27 03:55:52;;;;;;;2.70;0.80;;;;;;;0.49;nan;102908.09;5054362;28;20466;-66
2023/01/27 03:58:18;;;;;;;1.60;0.80;;;;;;;0.50;84.13;102907.13;5055638;28;20399;-66
2023/01/27 04:00:46;;;;;;;3.05;0.70;;;;;;;0.49;83.80;102914.22;5055636;28;20033;-66
2023/01/27 04:08:42;;;;;;;2.88;1.08;;;;;;;0.36;83.78;102895.47;5054479;28;20040;-66
2023/01/27 04:13:52;;;;;;;1.40;0.65;;;;;;;0.28;84.04;102896.84;5062396;28;20044;-66
2023/01/27 04:16:18;;;;;;;2.38;0.88;;;;;;;0.19;83.70;102899.03;5075888;28;20073;-66
2023/01/27 04:18:45;;;;;;;3.08;0.80;;;;;;;0.19;84.08;102904.31;5068856;28;20057;-67
2023/01/27 04:21:12;;;;;;;3.10;0.75;;;;;;;0.14;83.90;102905.50;5054810;28;20491;-67
2023/01/27 04:23:37;;;;;;;2.92;0.82;;;;;;;0.12;83.80;102894.13;5059960;28;20120;-67
2023/01/27 04:26:03;;;;;;;3.13;0.70;;;;;;;0.12;83.95;102902.06;5039115;28;20124;-66
2023/01/27 04:28:29;;;;;;;2.50;0.82;;;;;;;0.09;84.17;102910.19;5054720;28;20408;-67
2023/01/27 04:30:54;;;;;;;2.45;0.73;;;;;;;0.07;84.18;102907.63;5055971;28;20031;-66
2023/01/27 04:33:20;;;;;;;3.00;0.70;;;;;;;0.06;83.80;102900.59;5056229;28;20476;-67
2023/01/27 04:35:45;;;;;;;4.30;0.80;;;;;;;0.01;84.03;102915.88;5053228;28;20033;-66
2023/01/27 04:38:12;;;;;;;2.47;0.70;;;;;;;0.01;83.87;102910.59;5054498;28;20028;-66
2023/01/27 04:40:37;;;;;;;1.95;0.70;;;;;;;0.05;83.93;102912.13;5054744;28;20107;-67
2023/01/27 04:43:03;;;;;;;5.65;0.80;;;;;;;0.07;83.91;102910.28;5036568;28;20068;-66
2023/01/27 04:45:28;;;;;;;4.65;0.90;;;;;;;0.05;83.75;102913.94;5053802;28;20533;-66
2023/01/27 04:47:54;;;;;;;4.45;0.80;;;;;;;-0.03;83.63;102911.69;5054169;28;20033;-67
2023/01/27 04:50:19;;;;;;;3.10;0.60;;;;;;;-0.04;83.72;102917.88;5053944;28;20072;-67
2023/01/27 04:52:46;;;;;;;2.42;0.60;;;;;;;-0.04;83.72;102921.38;5054724;28;20029;-66
2023/01/27 04:55:12;;;;;;;4.00;0.70;;;;;;;-0.09;83.53;102910.19;5054741;28;20061;-66
2023/01/27 04:57:37;;;;;;;4.18;0.75;;;;;;;-0.05;83.44;102916.19;5054471;28;20025;-67
2023/01/27 05:00:04;;;;;;;2.42;0.60;;;;;;;-0.15;83.32;102918.44;5035503;28;20079;-67
2023/01/27 05:02:30;;;;;;;2.17;0.77;;;;;;;-0.15;83.71;102923.72;5036694;28;20032;-66
2023/01/27 05:04:56;;;;;;;2.60;0.80;;;;;;;-0.19;83.71;102924.81;5053777;28;20111;-66
2023/01/27 05:07:22;;;;;;;3.15;0.77;;;;;;;-0.20;83.91;102916.94;5053006;28;20028;-65
2023/01/27 05:09:47;;;;;;;1.80;0.60;;;;;;;-0.19;83.74;102921.31;5054077;28;20033;-66
2023/01/27 05:12:13;;;;;;;1.33;0.63;;;;;;;-0.19;83.71;102922.19;5055230;28;20115;-67
2023/01/27 05:14:38;;;;;;;1.88;0.63;;;;;;;-0.35;83.77;102900.91;5055304;28;20112;-66
2023/01/27 05:17:04;;;;;;;2.22;0.77;;;;;;;-0.21;83.46;102912.59;5052613;28;20082;-66
2023/01/27 05:19:29;;;;;;;1.98;0.55;;;;;;;-0.26;83.60;102907.56;5053459;28;20493;-66
2023/01/27 05:21:55;;;;;;;2.70;0.70;;;;;;;-0.35;83.92;102905.34;5051746;28;20036;-66
2023/01/27 05:24:20;;;;;;;2.35;0.65;;;;;;;-0.30;83.82;102919.19;5049518;28;20036;-67
2023/01/27 05:26:46;;;;;;;2.25;0.50;;;;;;;-0.26;84.01;102920.78;5052226;28;20029;-68
2023/01/27 05:29:11;;;;;;;2.08;0.68;;;;;;;-0.25;83.60;102914.53;5053949;28;20463;-66
2023/01/27 05:31:36;;;;;;;3.17;0.77;;;;;;;-0.25;84.14;102918.03;5036512;28;20039;-67
2023/01/27 05:34:02;;;;;;;2.38;0.77;;;;;;;-0.20;83.84;102912.50;5053023;28;20128;-68
2023/01/27 05:36:28;;;;;;;5.53;1.05;;;;;;;-0.22;83.74;102917.03;5059757;28;20092;-67
2023/01/27 05:38:54;;;;;;;2.92;0.88;;;;;;;-0.30;83.88;102912.13;5072915;28;20077;-66
2023/01/27 05:41:21;;;;;;;2.38;0.82;;;;;;;-0.28;83.83;102925.28;5073787;28;20054;-66
2023/01/27 05:43:53;;;;;;;2.78;0.73;;;;;;;-0.31;83.91;102926.28;5055130;28;20079;-67
2023/01/27 05:46:22;;;;;;;2.80;1.00;;;;;;;-0.38;83.76;102918.72;5057358;28;20028;-66
2023/01/27 05:48:50;;;;;;;1.23;0.70;;;;;;;-0.34;83.99;102921.13;5053897;28;20024;-68
2023/01/27 05:51:18;;;;;;;2.03;0.70;;;;;;;-0.38;84.13;102919.59;5053708;28;20121;-67
2023/01/27 05:53:44;;;;;;;2.90;0.90;;;;;;;-0.37;83.88;102925.72;5053954;28;20064;-67
2023/01/27 05:56:11;;;;;;;2.03;1.02;;;;;;;-0.38;83.83;102937.25;5051623;28;20094;-66
2023/01/27 05:58:37;;;;;;;4.50;0.98;;;;;;;-0.44;83.61;102945.47;5051486;28;20103;-67
2023/01/27 06:01:08;;;;;;;3.83;0.90;;;;;;;-0.44;84.06;102940.19;5053076;28;20079;-67
2023/01/27 06:03:34;;;;;;;3.10;1.02;;;;;;;-0.50;83.84;102928.13;5052888;28;20056;-71
2023/01/27 06:05:59;;;;;;;3.83;1.13;;;;;;;-0.40;84.47;102939.09;5051590;28;20028;-67
2023/01/27 06:08:25;;;;;;;3.45;1.02;;;;;;;-0.37;84.14;102941.59;5050991;28;20467;-67
2023/01/27 06:10:52;;;;;;;1.58;1.05;;;;;;;-0.39;83.97;102943.47;5049369;28;20573;-67
2023/01/27 06:13:19;;;;;;;4.28;1.30;;;;;;;-0.58;83.82;102917.06;5050755;28;20504;-67
2023/01/27 06:15:46;;;;;;;2.97;0.90;;;;;;;-0.44;83.64;102946.31;5051152;28;20063;-67
2023/01/27 06:18:12;;;;;;;1.70;0.80;;;;;;;-0.51;83.74;102937.00;5052846;28;20055;-67
2023/01/27 06:20:38;;;;;;;1.83;0.93;;;;;;;-0.50;84.10;102942.22;5049083;28;20112;-67
2023/01/27 06:23:05;;;;;;;3.08;0.80;;;;;;;-0.50;84.01;102946.63;5052599;28;20072;-66
2023/01/27 06:25:35;;;;;;;4.30;1.10;;;;;;;-0.52;83.99;102952.00;5051487;28;20025;-67
2023/01/27 06:28:00;;;;;;;2.40;1.00;;;;;;;-0.57;83.78;102947.84;5051169;28;20048;-67
2023/01/27 06:30:26;;;;;;;2.92;1.08;;;;;;;-0.66;83.82;102941.25;5054081;28;20024;-67
2023/01/27 06:32:51;;;;;;;2.33;0.90;;;;;;;-0.63;83.80;102959.59;5052578;28;20543;-68
2023/01/27 06:35:16;;;;;;;1.70;0.70;;;;;;;-0.65;83.91;102958.81;5054598;28;20049;-66
2023/01/27 06:37:42;;;;;;;2.65;0.98;;;;;;;-0.61;83.68;102957.72;5053068;28;20056;-67
2023/01/27 06:40:08;;;;;;;3.20;1.00;;;;;;;-0.63;83.73;102964.91;5051277;28;20035;-67
2023/01/27 06:42:34;;;;;;;5.90;1.40;;;;;;;-0.62;83.87;102957.81;5018269;28;20036;-67
2023/01/27 06:45:00;;;;;;;5.10;1.38;;;;;;;-0.63;83.77;102961.38;5052381;28;20033;-67
2023/01/27 06:47:25;;;;;;;6.10;1.77;;;;;;;-0.58;83.62;102962.03;5051489;28;20052;-67
2023/01/27 06:49:50;;;;;;;6.50;1.20;;;;;;;-0.61;83.63;102960.38;5035651;28;20036;-67
2023/01/27 06:52:16;;;;;;;3.50;1.25;;;;;;;-0.76;83.73;102945.25;5051997;28;20062;-67
2023/01/27 06:54:41;;;;;;;2.38;0.95;;;;;;;-0.62;83.40;102965.75;5053256;28;20025;-67
2023/01/27 06:57:10;;;;;;;5.25;1.10;;;;;;;-0.69;83.74;102946.69;5053225;28;20049;-67
2023/01/27 06:59:35;;;;;;;1.25;0.82;;;;;;;-0.63;83.57;102967.53;5054163;28;20086;-67
2023/01/27 07:02:01;;;;;;;3.83;1.05;;;;;;;-0.62;83.98;102965.75;5068291;28;20029;-67
2023/01/27 07:04:26;;;;;;;3.13;0.80;;;;;;;-0.60;83.64;102972.66;5069490;28;20086;-67
2023/01/27 07:06:52;;;;;;;1.27;0.82;;;;;;;-0.58;83.38;102965.50;5052524;28;20016;-66
2023/01/27 07:09:17;;;;;;;2.60;1.10;;;;;;;-0.54;83.92;102955.66;5056781;28;20455;-68
2023/01/27 07:11:43;;;;;;;5.10;1.20;;;;;;;-0.53;83.58;102955.59;5058178;28;20058;-66
2023/01/27 07:14:09;;;;;;;4.03;1.20;;;;;;;-0.61;83.49;102946.31;5038291;28;20056;-68
2023/01/27 07:16:34;;;;;;;3.83;1.30;;;;;;;-0.52;83.76;102954.66;5054706;28;20025;-67
2023/01/27 07:18:59;;;;;;;2.22;1.00;;;;;;;-0.52;83.92;102952.00;5055509;28;20045;-68
2023/01/27 07:21:25;;;;;;;3.78;1.20;;;;;;;-0.67;83.42;102912.22;5054603;28;20061;-67
2023/01/27 07:23:50;;;;;;;5.07;1.00;;;;;;;-0.50;83.90;102942.22;5054774;28;20033;-67
2023/01/27 07:26:16;;;;;;;2.97;1.27;;;;;;;-0.50;83.85;102954.56;5056317;28;20083;-67
2023/01/27 07:28:41;;;;;;;3.88;1.20;;;;;;;-0.53;83.77;102958.22;5054783;28;20059;-67
2023/01/27 07:31:06;;;;;;;2.30;1.05;;;;;;;-0.52;83.75;102952.00;5037992;28;20219;-68
2023/01/27 07:33:32;;;;;;;2.42;0.93;;;;;;;-0.48;83.74;102945.63;5021691;28;20036;-68
2023/01/27 07:35:57;;;;;;;3.55;1.45;;;;;;;-0.42;83.76;102954.22;5055852;28;20495;-68
2023/01/27 07:38:23;;;;;;;3.05;1.15;;;;;;;-0.41;83.89;102946.19;5054735;28;20025;-67
2023/01/27 07:40:48;;;;;;;4.70;1.30;;;;;;;-0.40;83.94;102953.19;5053617;28;20084;-67
2023/01/27 07:43:14;;;;;;;3.25;1.17;;;;;;;-0.41;83.93;102955.91;5053744;28;20143;-68
2023/01/27 07:45:39;;;;;;;2.75;1.20;;;;;;;-0.43;83.46;102952.47;5053817;28;20197;-68
2023/01/27 07:48:06;;;;;;;4.15;1.40;;;;;;;-0.47;83.98;102947.31;5054294;28;20071;-67
2023/01/27 07:50:34;;;;;;;5.05;2.20;;;;;;;-0.39;84.04;102959.34;5054164;28;20044;-67
2023/01/27 07:53:01;;;;;;;3.40;1.80;;;;;;;-0.35;83.70;102959.13;5053903;28;20510;-67
2023/01/27 07:55:27;;;;;;;6.60;1.98;;;;;;;-0.32;83.51;102961.59;5055716;28;20061;-67
2023/01/27 07:57:53;;;;;;;4.75;1.30;;;;;;;-0.30;83.74;102956.22;5055488;28;20024;-67
2023/01/27 08:00:20;;;;;;;4.60;1.42;;;;;;;-0.28;83.86;102957.03;5055092;28;20190;-67
2023/01/27 08:02:53;;;;;;;3.45;1.20;;;;;;;-0.29;83.94;102955.31;5054698;28;20051;-67
2023/01/27 08:05:21;;;;;;;4.22;1.30;;;;;;;-0.26;83.54;102971.03;5053284;28;20036;-67
2023/01/27 08:08:04;;;;;;;2.08;1.10;;;;;;;-0.17;83.69;102970.56;5058642;28;20029;-67
2023/01/27 08:10:30;;;;;;;4.13;1.23;;;;;;;-0.13;83.01;102966.84;5041424;28;20036;-68
2023/01/27 08:12:56;;;;;;;2.47;1.00;;;;;;;-0.29;83.14;102940.28;5054829;28;20037;-68
2023/01/27 08:15:21;;;;;;;3.03;1.20;;;;;;;-0.24;83.15;102943.56;5054336;28;20059;-67
2023/01/27 08:17:54;;;;;;;3.33;1.00;;;;;;;-0.26;83.28;102941.94;5054985;28;20020;-69
2023/01/27 08:20:21;;;;;;;3.85;1.20;;;;;;;-0.07;83.12;102965.66;5054204;28;20021;-68
2023/01/27 08:22:46;;;;;;;5.72;1.42;;;;;;;-0.05;83.02;102958.53;5053749;28;20041;-67
2023/01/27 08:25:13;;;;;;;6.30;1.92;;;;;;;-0.03;83.33;102956.66;5053868;28;20049;-68
2023/01/27 08:27:39;;;;;;;6.78;1.77;;;;;;;0.01;83.20;102950.28;5054851;28;20032;-67
2023/01/27 08:30:05;;;;;;;6.45;1.75;;;;;;;-0.02;83.11;102956.56;5054620;28;20033;-67
2023/01/27 08:32:30;;;;;;;4.10;1.40;;;;;;;0.01;83.25;102954.72;5054154;28;20377;-66
2023/01/27 08:34:56;;;;;;;4.25;1.60;;;;;;;-0.01;83.20;102955.63;5033085;28;20028;-67
2023/01/27 08:37:21;;;;;;;3.13;1.25;;;;;;;0.01;83.38;102960.88;5075399;28;20056;-67
2023/01/27 08:39:46;;;;;;;3.65;1.30;;;;;;;0.05;83.33;102969.50;5066307;28;20047;-68
2023/01/27 08:42:12;;;;;;;4.57;1.10;;;;;;;0.08;83.55;102959.63;5054500;28;20063;-67
2023/01/27 08:44:37;;;;;;;3.20;0.98;;;;;;;0.12;83.40;102955.03;5060008;28;20025;-67
2023/01/27 08:47:03;;;;;;;2.92;1.20;;;;;;;0.09;83.41;102949.88;5038201;28;20032;-67
2023/01/27 08:49:29;;;;;;;5.03;1.40;;;;;;;0.09;83.58;102956.03;5054539;28;20032;-66
2023/01/27 08:51:55;;;;;;;3.55;1.67;;;;;;;0.09;83.64;102945.44;5055740;28;20031;-67
2023/01/27 08:54:20;;;;;;;2.97;1.30;;;;;;;-0.02;83.52;102922.16;5054208;28;20025;-66
2023/01/27 08:56:46;;;;;;;4.93;2.10;;;;;;;0.22;83.38;102950.97;5054094;28;20348;-67
2023/01/27 08:59:11;;;;;;;4.75;1.40;;;;;;;0.20;83.23;102943.13;5053839;28;20037;-66
2023/01/27 09:01:36;;;;;;;4.20;1.80;;;;;;;0.15;83.31;102933.69;5053125;28;20486;-68
2023/01/27 09:04:02;;;;;;;6.28;1.55;;;;;;;0.27;83.42;102950.75;5036079;28;20041;-66
2023/01/27 09:06:27;;;;;;;5.43;1.60;;;;;;;0.29;83.37;102955.00;5054710;28;20044;-66
2023/01/27 09:09:07;;;;;;;5.30;2.15;;;;;;;0.25;83.15;102940.22;5054320;28;20037;-67
2023/01/27 09:11:35;;;;;;;4.13;1.90;;;;;;;0.38;83.23;102946.59;5038628;28;20047;-67
2023/01/27 09:14:00;;;;;;;6.00;2.20;;;;;;;0.45;83.50;102950.63;5054047;28;20036;-67
2023/01/27 09:16:26;;;;;;;4.40;2.42;;;;;;;0.46;83.38;102955.00;5053502;28;20021;-67
2023/01/27 09:18:51;;;;;;;5.45;2.15;;;;;;;0.49;83.41;102966.34;5054080;28;20415;-67
2023/01/27 09:21:17;;;;;;;5.03;2.53;;;;;;;0.50;83.58;102965.41;5052654;28;20103;-67
2023/01/27 09:23:42;;;;;;;4.97;2.30;;;;;;;0.56;83.73;102971.25;5054332;28;20009;-67
2023/01/27 09:26:08;;;;;;;6.18;2.47;;;;;;;0.61;83.63;102966.56;5052242;28;20037;-67
2023/01/27 09:28:33;;;;;;;7.05;2.80;;;;;;;0.57;83.56;102964.19;5035124;28;20033;-66
2023/01/27 09:30:59;;;;;;;4.95;3.22;;;;;;;0.58;83.22;102971.19;5051504;28;20036;-67
2023/01/27 09:33:25;;;;;;;7.55;3.70;;;;;;;0.53;83.42;102949.34;5053915;28;20055;-67
2023/01/27 09:35:59;;;;;;;7.75;4.10;;;;;;;0.64;83.53;102963.75;5053853;28;20539;-67
2023/01/27 09:38:30;;;;;;;7.68;4.55;;;;;;;0.72;83.39;102960.69;5053686;28;20037;-67
2023/01/27 09:41:25;;;;;;;9.43;5.40;;;;;;;0.77;83.50;102968.41;5053677;28;20038;-67
2023/01/27 09:44:26;;;;;;;7.63;4.60;;;;;;;0.82;83.52;102967.22;5056375;28;20028;-67
2023/01/27 09:46:57;;;;;;;8.25;4.55;;;;;;;0.90;83.59;102969.47;5057583;28;20039;-67
2023/01/27 09:49:36;;;;;;;8.45;4.70;;;;;;;0.94;83.49;102969.22;5053584;28;20119;-66
2023/01/27 09:52:34;;;;;;;10.10;5.53;;;;;;;1.01;83.12;102969.72;5052696;28;20508;-67
2023/01/27 09:55:33;;;;;;;7.70;4.60;;;;;;;1.05;83.30;102965.13;5052470;28;20040;-68
2023/01/27 09:58:36;;;;;;;8.85;4.10;;;;;;;1.13;83.25;102976.16;5053212;28;20496;-67
2023/01/27 10:01:16;;;;;;;6.30;3.90;;;;;;;1.16;83.19;102968.06;5052719;28;20037;-67
2023/01/27 10:04:13;;;;;;;9.00;3.90;;;;;;;1.20;83.50;102963.44;5051900;28;20029;-67
2023/01/27 10:07:05;;;;;;;7.65;4.00;;;;;;;1.24;83.15;102957.00;5030203;28;20029;-67
2023/01/27 10:10:06;;;;;;;9.57;4.00;;;;;;;1.23;83.42;102940.25;5054449;28;20108;-67
2023/01/27 10:12:51;;;;;;;7.45;4.40;;;;;;;1.35;83.28;102952.78;5054573;28;20178;-66
2023/01/27 10:15:19;;;;;;;22.05;12.25;;;;;;;1.36;83.20;102962.50;5057430;28;20071;-66
2023/01/27 10:18:13;;;;;;;24.55;12.63;;;;;;;1.39;83.67;102959.66;5054362;28;20066;-67
2023/01/27 10:21:02;;;;;;;21.88;12.55;;;;;;;1.49;83.24;102967.97;5051940;28;20028;-67
2023/01/27 10:23:57;;;;;;;19.05;9.77;;;;;;;1.57;83.73;102955.09;5053460;28;20029;-67
2023/01/27 10:26:50;;;;;;;47.97;21.88;;;;;;;1.64;83.13;102955.59;5029913;28;20047;-66
2023/01/27 10:29:24;;;;;;;16.83;9.48;;;;;;;1.59;82.76;102955.88;5052950;28;20048;-66
2023/01/27 10:31:57;;;;;;;8.05;4.97;;;;;;;1.48;83.45;102949.47;5051697;28;20047;-66
2023/01/27 10:34:28;;;;;;;11.95;6.38;;;;;;;1.58;83.29;102955.94;5051667;28;20120;-66
2023/01/27 10:37:07;;;;;;;14.68;10.63;;;;;;;1.59;83.15;102962.97;5051594;28;20104;-68
2023/01/27 10:39:45;;;;;;;6.65;3.60;;;;;;;1.63;83.26;102956.56;5051704;28;20087;-67
2023/01/27 10:42:17;;;;;;;7.13;3.90;;;;;;;1.73;83.75;102959.53;5052709;28;20029;-68
2023/01/27 10:45:21;;;;;;;8.80;3.55;;;;;;;1.84;83.66;102968.56;5052118;28;20025;-68
2023/01/27 10:47:55;;;;;;;6.25;3.08;;;;;;;1.98;83.33;102965.09;5051486;28;20436;-67
2023/01/27 10:50:31;;;;;;;8.00;3.58;;;;;;;2.04;83.66;102955.94;5052732;28;20036;-68
2023/01/27 10:53:05;;;;;;;8.13;4.75;;;;;;;2.06;83.46;102954.91;5054578;28;20031;-68
2023/01/27 10:55:59;;;;;;;15.20;8.40;;;;;;;2.18;83.26;102948.00;5054590;28;20124;-68
2023/01/27 10:58:39;;;;;;;8.05;3.53;;;;;;;2.18;82.90;102942.69;5054784;28;20041;-68
2023/01/27 11:01:07;;;;;;;4.75;2.55;;;;;;;2.20;82.97;102943.47;5054024;28;20032;-69
2023/01/27 11:03:41;;;;;;;7.22;3.08;;;;;;;2.09;83.49;102922.88;5051171;28;20025;-69
2023/01/27 11:06:13;;;;;;;5.30;2.53;;;;;;;2.32;83.38;102942.72;5052504;28;20043;-68
2023/01/27 11:08:44;;;;;;;5.57;2.80;;;;;;;2.26;83.17;102916.53;5052127;28;20284;-68
2023/01/27 11:14:21;;;;;;;4.20;2.20;;;;;;;2.46;83.12;102933.06;5018876;28;20480;-68
2023/01/27 11:17:10;;;;;;;5.07;2.50;;;;;;;2.59;83.77;102955.28;5049612;28;20423;-68
2023/01/27 11:19:48;;;;;;;6.28;2.10;;;;;;;2.71;83.41;102954.50;5050461;28;20534;-68
2023/01/27 11:22:20;;;;;;;9.50;1.98;;;;;;;2.61;83.06;102921.47;5052945;28;20096;-68
2023/01/27 11:25:05;;;;;;;6.78;2.55;;;;;;;2.59;83.22;102926.03;5052700;28;20031;-68
2023/01/27 11:27:45;;;;;;;5.65;2.08;;;;;;;2.58;83.69;102919.00;5052243;28;20033;-68
2023/01/27 11:30:20;;;;;;;3.65;2.10;;;;;;;2.67;83.25;102923.75;5050531;28;20033;-68
2023/01/27 11:32:56;;;;;;;5.18;2.25;;;;;;;2.59;83.20;102904.78;5051462;28;20039;-68
2023/01/27 11:35:22;;;;;;;3.45;1.85;;;;;;;2.74;83.13;102927.72;5051480;28;20128;-68
2023/01/27 11:37:50;;;;;;;4.72;1.90;;;;;;;2.81;83.31;102923.75;5052259;28;20116;-67
2023/01/27 11:40:34;;;;;;;4.38;1.80;;;;;;;2.86;83.42;102935.91;5052709;28;20478;-69
2023/01/27 11:43:01;;;;;;;5.00;2.00;;;;;;;2.90;83.75;102922.31;5051799;28;20040;-68
2023/01/27 11:45:32;;;;;;;5.95;2.00;;;;;;;3.00;83.30;102917.25;5052235;28;20116;-67
2023/01/27 11:48:00;;;;;;;4.20;1.77;;;;;;;3.11;82.72;102920.06;5050852;28;20025;-68
2023/01/27 11:50:33;;;;;;;4.40;2.03;;;;;;;3.24;83.37;102921.00;5051333;28;20543;-68
2023/01/27 11:53:35;;;;;;;5.25;1.90;;;;;;;3.30;83.09;102909.97;5051994;28;20036;-67
2023/01/27 11:56:19;;;;;;;4.35;1.80;;;;;;;3.38;82.91;102908.59;5052163;28;20024;-68
2023/01/27 11:58:52;;;;;;;5.95;1.60;;;;;;;3.37;82.64;102889.13;5055233;28;20032;-68
2023/01/27 12:01:23;;;;;;;4.43;1.80;;;;;;;3.54;82.09;102903.97;5054536;28;20033;-68
2023/01/27 12:03:58;;;;;;;7.18;2.03;;;;;;;3.62;82.74;102890.19;5055626;28;20111;-68
2023/01/27 12:06:34;;;;;;;6.22;1.98;;;;;;;3.71;82.17;102898.41;5053851;28;20103;-68
2023/01/27 12:08:59;;;;;;;16.30;6.60;;;;;;;3.81;81.72;102888.00;5055438;28;20070;-68
2023/01/27 12:11:27;;;;;;;53.63;20.33;;;;;;;3.90;82.19;102886.50;5055759;28;20493;-68
2023/01/27 12:13:58;;;;;;;30.50;12.73;;;;;;;3.86;81.43;102858.38;5055295;28;20425;-68
2023/01/27 12:16:49;;;;;;;70.20;30.98;;;;;;;4.10;81.57;102875.31;5053685;28;20033;-68